createdAt,value
2023-01-20T00:01:12.005Z,9.17
2023-01-20T00:03:42.478Z,8.83
2023-01-20T00:06:11.106Z,9.87
2023-01-20T00:08:39.791Z,9.67
2023-01-20T00:11:08.942Z,10.10
2023-01-20T00:13:37.863Z,9.77
2023-01-20T00:16:07.568Z,9.03
2023-01-20T00:18:35.982Z,9.60
2023-01-20T00:21:07.011Z,9.30
2023-01-20T00:23:35.103Z,9.83
2023-01-20T00:26:06.973Z,9.77
2023-01-20T00:28:35.613Z,9.40
2023-01-20T00:31:15.575Z,8.90
2023-01-20T00:33:44.788Z,9.37
2023-01-20T00:36:16.375Z,9.40
2023-01-20T00:38:44.700Z,9.83
2023-01-20T00:41:13.319Z,9.80
2023-01-20T00:43:41.796Z,9.93
2023-01-20T00:46:10.168Z,10.47
2023-01-20T00:48:38.393Z,8.57
2023-01-20T00:51:07.689Z,10.23
2023-01-20T00:53:37.698Z,10.10
2023-01-20T00:56:06.863Z,9.60
2023-01-20T00:58:35.244Z,9.87
2023-01-20T01:01:03.745Z,8.97
2023-01-20T01:03:32.197Z,12.57
2023-01-20T01:06:11.997Z,10.60
2023-01-20T01:08:41.674Z,15.80
2023-01-20T01:11:10.356Z,9.37
2023-01-20T01:13:39.352Z,14.07
2023-01-20T01:16:11.711Z,11.40
2023-01-20T01:18:40.513Z,10.03
2023-01-20T01:21:10.085Z,11.10
2023-01-20T01:23:38.178Z,10.53
2023-01-20T01:26:07.803Z,9.97
2023-01-20T01:28:35.914Z,10.47
2023-01-20T01:31:04.569Z,10.17
2023-01-20T01:33:33.219Z,10.17
2023-01-20T01:36:03.307Z,8.47
2023-01-20T01:38:31.783Z,7.40
2023-01-20T01:40:59.909Z,7.40
2023-01-20T01:43:31.400Z,8.53
2023-01-20T01:46:00.209Z,8.93
2023-01-20T01:48:32.711Z,7.53
2023-01-20T01:51:05.902Z,8.50
2023-01-20T01:53:40.940Z,8.40
2023-01-20T01:56:09.871Z,8.77
2023-01-20T01:58:43.248Z,8.47
2023-01-20T02:01:12.139Z,8.97
2023-01-20T02:03:45.953Z,8.80
2023-01-20T02:06:15.325Z,8.77
2023-01-20T02:08:44.212Z,8.43
2023-01-20T02:11:12.364Z,9.23
2023-01-20T02:13:42.131Z,9.30
2023-01-20T02:16:19.097Z,8.63
2023-01-20T02:19:00.761Z,9.33
2023-01-20T02:21:50.839Z,9.57
2023-01-20T02:24:58.536Z,8.37
2023-01-20T02:27:51.509Z,9.57
2023-01-20T02:30:50.158Z,9.87
2023-01-20T02:33:26.590Z,9.00
2023-01-20T02:35:59.656Z,8.40
2023-01-20T02:38:34.058Z,10.23
2023-01-20T02:41:10.688Z,9.17
2023-01-20T02:43:48.203Z,9.97
2023-01-20T02:46:25.275Z,9.83
2023-01-20T02:48:59.740Z,9.70
2023-01-20T02:51:33.001Z,8.60
2023-01-20T02:54:03.867Z,9.70
2023-01-20T02:56:35.835Z,9.50
2023-01-20T02:59:07.557Z,9.17
2023-01-20T03:01:40.679Z,9.83
2023-01-20T03:04:13.155Z,9.50
2023-01-20T03:06:47.648Z,10.30
2023-01-20T03:09:19.714Z,9.63
2023-01-20T03:11:54.590Z,9.97
2023-01-20T03:14:22.852Z,9.40
2023-01-20T03:16:51.257Z,9.40
2023-01-20T03:19:21.256Z,10.23
2023-01-20T03:21:49.833Z,10.60
2023-01-20T03:24:18.016Z,12.00
2023-01-20T03:26:46.250Z,12.37
2023-01-20T03:29:15.920Z,11.57
2023-01-20T03:31:47.827Z,12.00
2023-01-20T03:34:21.019Z,13.20
2023-01-20T03:36:50.202Z,13.17
2023-01-20T03:39:18.782Z,12.17
2023-01-20T03:42:00.524Z,13.20
2023-01-20T03:44:40.895Z,11.97
2023-01-20T03:47:17.685Z,13.17
2023-01-20T03:49:55.472Z,13.80
2023-01-20T03:52:47.959Z,13.40
2023-01-20T03:55:22.187Z,13.57
2023-01-20T03:57:54.243Z,13.53
2023-01-20T04:00:24.011Z,13.80
2023-01-20T04:02:54.427Z,14.53
2023-01-20T04:05:24.422Z,13.27
2023-01-20T04:07:55.282Z,12.70
2023-01-20T04:10:24.999Z,13.47
2023-01-20T04:12:53.253Z,12.93
2023-01-20T04:15:23.156Z,14.37
2023-01-20T04:17:51.550Z,13.60
2023-01-20T04:20:20.809Z,13.20
2023-01-20T04:22:53.353Z,12.63
2023-01-20T04:25:25.739Z,16.20
2023-01-20T04:27:53.839Z,14.63
2023-01-20T04:30:22.002Z,14.87
2023-01-20T04:32:50.325Z,14.97
2023-01-20T04:35:20.413Z,16.23
2023-01-20T04:37:49.858Z,12.73
2023-01-20T04:40:18.317Z,13.67
2023-01-20T04:42:46.430Z,13.60
2023-01-20T04:45:17.413Z,14.07
2023-01-20T04:47:46.016Z,12.33
2023-01-20T04:50:15.226Z,13.77
2023-01-20T04:52:43.711Z,13.80
2023-01-20T04:55:13.722Z,14.70
2023-01-20T04:57:42.137Z,14.17
2023-01-20T05:00:12.571Z,15.27
2023-01-20T05:02:40.683Z,14.07
2023-01-20T05:05:10.258Z,13.87
2023-01-20T05:07:38.476Z,14.17
2023-01-20T05:10:07.923Z,14.40
2023-01-20T05:12:37.691Z,13.87
2023-01-20T05:15:07.094Z,15.03
2023-01-20T05:17:35.140Z,15.60
2023-01-20T05:20:03.296Z,14.80
2023-01-20T05:22:33.147Z,15.23
2023-01-20T05:25:01.249Z,15.53
2023-01-20T05:27:29.332Z,14.87
2023-01-20T05:29:58.812Z,14.20
2023-01-20T05:32:26.845Z,14.27
2023-01-20T05:34:54.947Z,16.00
2023-01-20T05:37:23.030Z,15.87
2023-01-20T05:39:51.266Z,15.57
2023-01-20T05:42:19.451Z,17.50
2023-01-20T05:44:47.521Z,16.47
2023-01-20T05:47:17.076Z,14.77
2023-01-20T05:49:45.257Z,15.77
2023-01-20T05:52:13.583Z,16.23
2023-01-20T05:54:41.710Z,15.83
2023-01-20T05:57:09.904Z,14.63
2023-01-20T05:59:38.328Z,15.17
2023-01-20T06:02:06.444Z,14.83
2023-01-20T06:04:36.251Z,15.07
2023-01-20T06:07:04.348Z,14.87
2023-01-20T06:09:32.397Z,13.13
2023-01-20T06:12:00.526Z,14.43
2023-01-20T06:14:28.664Z,16.17
2023-01-20T06:16:56.817Z,14.83
2023-01-20T06:19:25.048Z,13.47
2023-01-20T06:21:54.655Z,13.00
2023-01-20T06:24:22.738Z,13.23
2023-01-20T06:26:52.068Z,13.97
2023-01-20T06:29:20.374Z,13.07
2023-01-20T06:31:48.667Z,16.40
2023-01-20T06:34:19.938Z,17.50
2023-01-20T06:36:48.064Z,15.57
2023-01-20T06:39:17.820Z,16.67
2023-01-20T06:41:46.402Z,16.00
2023-01-20T06:44:15.437Z,15.07
2023-01-20T06:46:43.573Z,13.67
2023-01-20T06:49:13.198Z,15.20
2023-01-20T06:51:41.766Z,15.20
2023-01-20T06:54:10.042Z,15.63
2023-01-20T06:56:39.780Z,15.70
2023-01-20T06:59:08.168Z,17.43
2023-01-20T07:01:37.902Z,15.97
2023-01-20T07:04:06.585Z,15.83
2023-01-20T07:06:38.260Z,16.30
2023-01-20T07:09:08.106Z,16.87
2023-01-20T07:11:37.347Z,16.57
2023-01-20T07:14:07.465Z,16.47
2023-01-20T07:16:36.049Z,15.20
2023-01-20T07:19:04.262Z,15.93
2023-01-20T07:21:32.545Z,16.23
2023-01-20T07:24:02.345Z,16.27
2023-01-20T07:26:31.082Z,15.97
2023-01-20T07:28:59.919Z,16.77
2023-01-20T07:31:31.272Z,17.90
2023-01-20T07:34:00.111Z,18.37
2023-01-20T07:36:28.975Z,18.17
2023-01-20T07:38:57.117Z,17.80
2023-01-20T07:41:25.423Z,16.87
2023-01-20T07:43:54.381Z,18.20
2023-01-20T07:46:23.246Z,17.43
2023-01-20T07:48:52.922Z,17.70
2023-01-20T07:51:21.355Z,18.03
2023-01-20T07:53:51.882Z,18.17
2023-01-20T07:56:22.380Z,17.33
2023-01-20T07:58:51.399Z,18.83
2023-01-20T08:01:21.665Z,17.83
2023-01-20T08:03:50.266Z,18.63
2023-01-20T08:06:21.497Z,19.60
2023-01-20T08:08:49.906Z,20.17
2023-01-20T08:11:19.389Z,20.10
2023-01-20T08:13:47.961Z,42.23
2023-01-20T08:16:18.017Z,33.93
2023-01-20T08:18:46.582Z,25.33
2023-01-20T08:21:23.829Z,47.53
2023-01-20T08:23:52.459Z,66.10
2023-01-20T08:26:20.806Z,26.97
2023-01-20T08:28:49.017Z,21.10
2023-01-20T08:31:21.542Z,22.07
2023-01-20T08:33:50.113Z,20.73
2023-01-20T08:36:20.480Z,21.23
2023-01-20T08:38:50.944Z,21.10
2023-01-20T08:41:22.746Z,20.93
2023-01-20T08:43:51.392Z,20.20
2023-01-20T08:46:21.080Z,21.00
2023-01-20T08:48:50.637Z,19.93
2023-01-20T08:51:21.267Z,20.00
2023-01-20T08:53:51.716Z,20.03
2023-01-20T08:56:20.868Z,20.00
2023-01-20T08:58:49.527Z,19.33
2023-01-20T09:01:21.112Z,18.93
2023-01-20T09:04:04.462Z,19.00
2023-01-20T09:06:39.122Z,20.73
2023-01-20T09:09:08.800Z,20.20
2023-01-20T09:11:37.448Z,21.33
2023-01-20T09:14:05.734Z,20.07
2023-01-20T09:16:34.139Z,20.00
2023-01-20T09:19:03.063Z,19.97
2023-01-20T09:21:31.188Z,20.87
2023-01-20T09:23:59.243Z,19.87
2023-01-20T09:26:38.562Z,18.43
2023-01-20T09:29:11.270Z,19.80
2023-01-20T09:31:44.158Z,18.97
2023-01-20T09:34:15.108Z,18.77
2023-01-20T09:36:43.402Z,20.00
2023-01-20T09:39:31.846Z,20.73
2023-01-20T09:42:22.768Z,19.13
2023-01-20T09:45:06.950Z,20.10
2023-01-20T09:47:43.096Z,20.10
2023-01-20T09:50:40.712Z,19.17
2023-01-20T09:53:15.574Z,20.20
2023-01-20T09:55:51.420Z,19.50
2023-01-20T09:58:31.450Z,19.97
2023-01-20T10:01:10.070Z,19.80
2023-01-20T10:03:48.497Z,17.97
2023-01-20T10:06:24.942Z,19.00
2023-01-20T10:09:05.496Z,18.53
2023-01-20T10:11:39.441Z,18.73
2023-01-20T10:14:16.779Z,19.17
2023-01-20T10:16:51.779Z,19.57
2023-01-20T10:19:27.009Z,21.20
2023-01-20T10:22:03.829Z,20.50
2023-01-20T10:24:36.979Z,20.77
2023-01-20T10:27:06.423Z,20.07
2023-01-20T10:29:39.030Z,18.00
2023-01-20T10:32:12.443Z,19.70
2023-01-20T10:34:46.128Z,18.30
2023-01-20T10:37:15.811Z,20.37
2023-01-20T10:39:49.216Z,20.10
2023-01-20T10:42:18.517Z,19.77
2023-01-20T10:44:50.911Z,20.13
2023-01-20T10:47:40.963Z,20.60
2023-01-20T10:50:32.149Z,18.60
2023-01-20T10:53:20.141Z,18.90
2023-01-20T10:55:59.774Z,19.73
2023-01-20T10:58:29.692Z,20.03
2023-01-20T11:01:04.085Z,16.13
2023-01-20T11:03:36.270Z,18.03
2023-01-20T11:06:05.181Z,16.47
2023-01-20T11:08:33.308Z,17.30
2023-01-20T11:11:11.507Z,18.00
2023-01-20T11:13:39.604Z,18.37
2023-01-20T11:16:17.319Z,17.80
2023-01-20T11:18:57.185Z,19.03
2023-01-20T11:21:26.127Z,17.80
2023-01-20T11:23:56.804Z,19.33
2023-01-20T11:26:28.417Z,19.17
2023-01-20T11:28:58.684Z,19.07
2023-01-20T11:31:39.884Z,20.17
2023-01-20T11:34:22.602Z,21.07
2023-01-20T11:36:51.570Z,18.57
2023-01-20T11:39:27.998Z,20.00
2023-01-20T11:42:13.159Z,18.57
2023-01-20T11:44:44.929Z,18.73
2023-01-20T11:47:28.495Z,17.07
2023-01-20T11:50:25.877Z,18.73
2023-01-20T11:52:54.047Z,18.50
2023-01-20T11:55:24.399Z,18.43
2023-01-20T11:57:56.578Z,17.63
2023-01-20T12:00:40.526Z,18.30
2023-01-20T12:03:35.727Z,16.80
2023-01-20T12:06:10.067Z,17.40
2023-01-20T12:08:48.390Z,17.83
2023-01-20T12:11:20.301Z,17.20
2023-01-20T12:14:18.195Z,18.13
2023-01-20T12:16:49.349Z,17.53
2023-01-20T12:19:23.674Z,17.10
2023-01-20T12:21:54.015Z,18.40
2023-01-20T12:24:38.721Z,18.43
2023-01-20T12:27:18.499Z,17.43
2023-01-20T12:29:48.400Z,19.07
2023-01-20T12:32:17.381Z,18.23
2023-01-20T12:34:47.171Z,23.40
2023-01-20T12:37:24.670Z,19.10
2023-01-20T12:40:19.405Z,17.57
2023-01-20T12:43:05.753Z,73.40
2023-01-20T12:46:11.365Z,81.13
2023-01-20T12:48:49.789Z,20.67
2023-01-20T12:51:33.339Z,19.00
2023-01-20T12:54:42.954Z,17.77
2023-01-20T12:57:31.508Z,27.63
2023-01-20T13:00:14.099Z,21.80
2023-01-20T13:03:04.334Z,17.83
2023-01-20T13:05:51.224Z,16.57
2023-01-20T13:08:25.647Z,17.70
2023-01-20T13:11:03.800Z,15.73
2023-01-20T13:13:55.973Z,17.17
2023-01-20T13:16:33.215Z,18.43
2023-01-20T13:19:09.749Z,17.50
2023-01-20T13:21:37.899Z,18.80
2023-01-20T13:24:08.262Z,17.77
2023-01-20T13:26:37.940Z,19.50
2023-01-20T13:29:06.160Z,18.07
2023-01-20T13:31:46.168Z,16.23
2023-01-20T13:34:35.712Z,16.00
2023-01-20T13:37:26.491Z,16.70
2023-01-20T13:39:58.021Z,16.80
2023-01-20T13:42:31.843Z,18.43
2023-01-20T13:45:33.026Z,18.67
2023-01-20T13:48:22.470Z,16.87
2023-01-20T13:50:51.748Z,17.90
2023-01-20T13:53:29.799Z,18.00
2023-01-20T13:56:27.516Z,19.67
2023-01-20T13:58:58.060Z,18.60
2023-01-20T14:01:26.910Z,18.50
2023-01-20T14:04:05.374Z,18.30
2023-01-20T14:06:36.092Z,18.40
2023-01-20T14:09:07.864Z,18.83
2023-01-20T14:11:50.181Z,19.87
2023-01-20T14:14:20.318Z,19.13
2023-01-20T14:16:48.569Z,20.80
2023-01-20T14:19:23.369Z,20.23
2023-01-20T14:21:54.592Z,17.33
2023-01-20T14:24:29.174Z,17.73
2023-01-20T14:27:11.900Z,17.67
2023-01-20T14:29:40.856Z,17.60
2023-01-20T14:32:22.288Z,19.57
2023-01-20T14:34:51.468Z,19.17
2023-01-20T14:37:28.663Z,18.83
2023-01-20T14:39:58.801Z,19.40
2023-01-20T14:42:31.102Z,18.17
2023-01-20T14:44:59.398Z,21.33
2023-01-20T14:47:28.282Z,18.37
2023-01-20T14:49:57.126Z,18.93
2023-01-20T14:52:29.554Z,18.90
2023-01-20T14:54:58.494Z,21.07
2023-01-20T14:57:30.982Z,21.10
2023-01-20T15:00:05.580Z,19.17
2023-01-20T15:02:36.175Z,23.13
2023-01-20T15:05:27.733Z,18.40
2023-01-20T15:08:26.088Z,20.17
2023-01-20T15:11:23.309Z,20.77
2023-01-20T15:14:10.913Z,19.07
2023-01-20T15:16:47.464Z,19.50
2023-01-20T15:19:34.661Z,20.23
2023-01-20T15:22:23.825Z,19.00
2023-01-20T15:24:52.490Z,18.23
2023-01-20T15:27:27.478Z,19.17
2023-01-20T15:30:14.325Z,19.00
2023-01-20T15:32:42.460Z,19.10
2023-01-20T15:35:14.475Z,20.33
2023-01-20T15:37:43.571Z,19.80
2023-01-20T15:40:16.714Z,19.70
2023-01-20T15:42:45.163Z,19.63
2023-01-20T15:45:15.869Z,20.43
2023-01-20T15:47:44.543Z,18.07
2023-01-20T15:50:18.103Z,18.97
2023-01-20T15:52:46.611Z,20.17
2023-01-20T15:55:15.663Z,18.90
2023-01-20T15:57:43.982Z,20.23
2023-01-20T16:00:20.919Z,19.90
2023-01-20T16:02:51.448Z,19.63
2023-01-20T16:05:19.589Z,19.60
2023-01-20T16:07:49.898Z,18.23
2023-01-20T16:10:19.227Z,20.43
2023-01-20T16:12:48.219Z,19.80
2023-01-20T16:15:17.881Z,19.33
2023-01-20T16:17:47.313Z,18.40
2023-01-20T16:20:21.918Z,19.20
2023-01-20T16:22:50.055Z,18.77
2023-01-20T16:25:18.619Z,18.07
2023-01-20T16:27:46.840Z,19.10
2023-01-20T16:30:18.310Z,18.03
2023-01-20T16:32:48.305Z,19.63
2023-01-20T16:35:17.865Z,18.20
2023-01-20T16:37:47.444Z,18.77
2023-01-20T16:40:17.788Z,18.93
2023-01-20T16:42:46.155Z,18.47
2023-01-20T16:45:24.670Z,18.80
2023-01-20T16:47:54.803Z,18.73
2023-01-20T16:50:23.125Z,19.13
2023-01-20T16:52:51.241Z,20.57
2023-01-20T16:55:20.177Z,21.03
2023-01-20T16:57:48.411Z,19.60
2023-01-20T17:00:19.204Z,19.70
2023-01-20T17:02:51.245Z,18.20
2023-01-20T17:05:22.833Z,19.27
2023-01-20T17:07:51.303Z,18.97
2023-01-20T17:10:20.382Z,19.90
2023-01-20T17:12:49.117Z,20.97
2023-01-20T17:15:17.381Z,21.00
2023-01-20T17:17:49.478Z,21.27
2023-01-20T17:20:18.438Z,23.90
2023-01-20T17:22:48.384Z,23.87
2023-01-20T17:25:18.132Z,22.90
2023-01-20T17:27:46.291Z,22.73
2023-01-20T17:30:16.833Z,21.90
2023-01-20T17:32:49.227Z,21.30
2023-01-20T17:35:17.662Z,22.47
2023-01-20T17:37:47.225Z,22.07
2023-01-20T17:40:16.968Z,22.47
2023-01-20T17:42:46.343Z,21.33
2023-01-20T17:45:14.703Z,21.20
2023-01-20T17:47:43.281Z,20.13
2023-01-20T17:50:12.118Z,23.80
2023-01-20T17:52:40.788Z,24.30
2023-01-20T17:55:11.478Z,22.83
2023-01-20T17:57:39.592Z,22.90
2023-01-20T18:00:09.491Z,19.33
2023-01-20T18:02:37.593Z,19.77
2023-01-20T18:05:06.840Z,20.10
2023-01-20T18:07:35.176Z,20.50
2023-01-20T18:10:03.305Z,22.07
2023-01-20T18:12:33.018Z,20.13
2023-01-20T18:15:01.258Z,21.33
2023-01-20T18:17:34.541Z,19.63
2023-01-20T18:20:02.642Z,20.23
2023-01-20T18:22:30.831Z,19.63
2023-01-20T18:24:58.978Z,18.23
2023-01-20T18:27:27.103Z,19.50
2023-01-20T18:29:56.604Z,19.67
2023-01-20T18:32:25.932Z,19.80
2023-01-20T18:34:54.041Z,18.23
2023-01-20T18:37:22.185Z,18.43
2023-01-20T18:39:50.261Z,18.57
2023-01-20T18:42:18.349Z,19.27
2023-01-20T18:44:46.570Z,18.40
2023-01-20T18:47:16.106Z,20.20
2023-01-20T18:49:44.174Z,18.13
2023-01-20T18:52:12.239Z,18.73
2023-01-20T18:54:40.366Z,17.33
2023-01-20T18:57:09.179Z,17.40
2023-01-20T18:59:37.401Z,17.73
2023-01-20T19:02:05.734Z,17.60
2023-01-20T19:04:35.753Z,17.40
2023-01-20T19:07:03.994Z,18.47
2023-01-20T19:09:32.073Z,20.30
2023-01-20T19:12:00.127Z,17.43
2023-01-20T19:14:28.190Z,18.87
2023-01-20T19:16:56.315Z,18.13
2023-01-20T19:19:24.668Z,18.07
2023-01-20T19:21:54.250Z,18.97
2023-01-20T19:24:22.805Z,19.80
2023-01-20T19:26:51.226Z,20.47
2023-01-20T19:29:19.750Z,20.73
2023-01-20T19:31:49.066Z,19.17
2023-01-20T19:34:17.335Z,19.80
2023-01-20T19:36:46.407Z,19.23
2023-01-20T19:39:16.213Z,20.37
2023-01-20T19:41:44.510Z,19.70
2023-01-20T19:44:13.932Z,18.53
2023-01-20T19:46:42.214Z,18.73
2023-01-20T19:49:11.814Z,18.17
2023-01-20T19:51:40.371Z,18.43
2023-01-20T19:54:08.653Z,17.23
2023-01-20T19:56:38.190Z,18.40
2023-01-20T19:59:07.198Z,17.53
2023-01-20T20:01:36.926Z,16.27
2023-01-20T20:04:07.272Z,18.37
2023-01-20T20:06:37.967Z,16.93
2023-01-20T20:09:08.529Z,17.87
2023-01-20T20:11:38.894Z,18.60
2023-01-20T20:14:08.524Z,19.33
2023-01-20T20:16:37.964Z,17.90
2023-01-20T20:19:06.770Z,17.93
2023-01-20T20:21:35.650Z,17.13
2023-01-20T20:24:05.431Z,18.23
2023-01-20T20:26:35.379Z,18.97
2023-01-20T20:29:06.882Z,17.23
2023-01-20T20:31:37.615Z,16.80
2023-01-20T20:34:08.383Z,17.63
2023-01-20T20:36:36.797Z,17.33
2023-01-20T20:39:06.000Z,17.90
2023-01-20T20:41:35.488Z,16.83
2023-01-20T20:44:05.725Z,15.87
2023-01-20T20:46:34.276Z,17.70
2023-01-20T20:49:02.643Z,17.50
2023-01-20T20:51:32.179Z,16.93
2023-01-20T20:54:02.529Z,17.37
2023-01-20T20:56:32.375Z,18.87
2023-01-20T20:59:03.367Z,16.70
2023-01-20T21:01:34.813Z,17.33
2023-01-20T21:04:03.311Z,16.93
2023-01-20T21:06:32.262Z,18.57
2023-01-20T21:09:01.044Z,15.27
2023-01-20T21:11:29.918Z,14.87
2023-01-20T21:13:58.275Z,14.93
2023-01-20T21:16:28.085Z,16.53
2023-01-20T21:18:59.416Z,15.13
2023-01-20T21:21:28.927Z,15.77
2023-01-20T21:23:58.965Z,16.17
2023-01-20T21:26:30.450Z,15.30
2023-01-20T21:29:01.615Z,15.77
2023-01-20T21:31:31.078Z,16.60
2023-01-20T21:34:02.763Z,16.80
2023-01-20T21:36:33.868Z,14.97
2023-01-20T21:39:02.046Z,16.20
2023-01-20T21:41:30.191Z,16.53
2023-01-20T21:44:15.834Z,16.63
2023-01-20T21:46:44.035Z,16.07
2023-01-20T21:49:31.176Z,17.40
2023-01-20T21:52:25.620Z,24.70
2023-01-20T21:54:56.196Z,15.43
2023-01-20T21:57:25.180Z,16.27
2023-01-20T21:59:56.009Z,16.33
2023-01-20T22:02:24.676Z,15.37
2023-01-20T22:04:54.740Z,17.00
2023-01-20T22:07:28.715Z,17.27
2023-01-20T22:09:58.258Z,16.20
2023-01-20T22:12:33.591Z,15.40
2023-01-20T22:15:06.395Z,15.23
2023-01-20T22:17:37.707Z,15.87
2023-01-20T22:20:08.550Z,14.57
2023-01-20T22:22:36.652Z,13.77
2023-01-20T22:25:05.085Z,13.93
2023-01-20T22:27:33.159Z,14.53
2023-01-20T22:30:01.222Z,13.57
2023-01-20T22:32:29.343Z,14.27
2023-01-20T22:34:57.466Z,12.77
2023-01-20T22:37:27.114Z,13.97
2023-01-20T22:39:55.915Z,13.37
2023-01-20T22:42:24.119Z,13.50
2023-01-20T22:44:52.415Z,12.73
2023-01-20T22:47:20.473Z,12.63
2023-01-20T22:49:48.580Z,12.77
2023-01-20T22:52:16.644Z,13.67
2023-01-20T22:54:46.106Z,13.80
2023-01-20T22:57:14.191Z,13.30
2023-01-20T22:59:42.367Z,13.17
2023-01-20T23:02:10.543Z,15.40
2023-01-20T23:04:38.641Z,15.63
2023-01-20T23:07:06.883Z,13.53
2023-01-20T23:09:34.977Z,13.07
2023-01-20T23:12:04.785Z,12.50
2023-01-20T23:14:50.153Z,12.60
2023-01-20T23:17:18.209Z,11.23
2023-01-20T23:19:46.289Z,10.53
2023-01-20T23:22:14.487Z,11.73
2023-01-20T23:24:42.539Z,13.03
2023-01-20T23:27:11.960Z,11.03
2023-01-20T23:29:40.088Z,12.20
2023-01-20T23:32:08.586Z,11.40
2023-01-20T23:34:36.681Z,13.07
2023-01-20T23:37:04.729Z,11.37
2023-01-20T23:39:32.897Z,11.37
2023-01-20T23:42:00.989Z,11.17
2023-01-20T23:44:30.488Z,10.27
2023-01-20T23:46:58.739Z,9.93
2023-01-20T23:49:26.860Z,9.10
2023-01-20T23:51:56.432Z,9.73
2023-01-20T23:54:27.288Z,8.97
2023-01-20T23:56:55.555Z,9.40
2023-01-20T23:59:23.765Z,9.77
